Spangdahlem, Germany

8:39 PM CEST on September 23, 2014 (GMT +0200)
Spangdahlem AB | Change Station
CLOSE
Current Station
Personal Weather Station
Location: Spangdahlem AB, GE
Elevation: 1220 ft
Nearby Weather Stations

Elev 1220 ft 50.00 °N, 6.71 °E | Updated 2 seconds ago

Scattered Clouds
Scattered Clouds
51.0 °F
Feels Like 51.0 °F
N
0.0
Wind Variable Wind from SSW
Gusts 0.0 mph

Today
High -- | Low -- °F
--% Chance of Precip.
Yesterday
High -- | Low -- °F
Precip. -- in
7:20 AM 7:29 PM
Waning Crescent, 0% visible
Pressure 30.09 in
Visibility 6.2 miles
Clouds Scattered Clouds 22000 ft
Dew Point 37 °F
Humidity 58%
Rainfall 0.00 in
Snow Depth Not available.
UV 0 out of 12
Pollen Not available.
Air Quality Not available.
Flu Activity Not available.
METAR ETSB 231820Z 08004KT 9999 SCT220 10/05 Q1019 BLU+BLU+

More Conditions Fewer Conditions

Pressure 30.09 in
Visibility 6.2 miles
Clouds Scattered Clouds 22000 ft
Dew Point 37 °F
Humidity 58%
Rainfall 0.00 in
Snow Depth Not available.
UV 0 out of 12
Pollen Not available.
Air Quality Not available.
Flu Activity Not available.
METAR ETSB 231820Z 08004KT 9999 SCT220 10/05 Q1019 BLU+BLU+

More Conditions Fewer Conditions

10-Day Weather Forecast

Almanac

Astronomy

Sep. 23, 2014 Rise Set
Actual Time 7:20 AM CEST 7:29 PM CEST
Civil Twilight 6:48 AM CEST 8:01 PM CEST
Nautical Twilight 6:10 AM CEST 8:39 PM CEST
Astronomical Twilight 5:30 AM CEST 9:18 PM CEST
Moon 6:27 AM CEST 6:59 PM CEST
Length of Visible Light 13h 13m
Length of Day
12h 08m
Tomorrow will be 3m 43s shorter.
Waning Crescent, 0% of the Moon is Illuminated
Today
Waning Crescent
Sep 24
New
Oct 1
First Quarter
Oct 8
Full
Oct 15
Last Quarter

Today's Extremes

Country Highs Country Lows

Community

WunderPhotos

Upload Photos

1,755,775 photos uploaded!

Nearby

Snow Depth

Not available.

Earthquake Activity

City Distance Mag. Time & Date
No recent earthquake activity has been reported nearby.
Minimum magnitude displayed is 2.5.

Coastal Water Temperatures

Place Temperature
No Stations Reporting

Nearby Weather Stations